Terminal Aerodrome Forecast
Issued by NWS

Current Version | Previous Version | Text Only | Print | Product List | Glossary Off
Versions: 1 2 3 4 5 6 7 8 9 10 11 12 13 14 15

000
FTUS41 KPBZ 221124
TAFMGW
TAF
KMGW 221124Z 2212/2312 20008KT 6SM -SHRA OVC025
     FM221700 25015G25KT P6SM BKN050
     FM230000 27008KT P6SM BKN050=

USA.gov is the U.S. government's official web portal to all federal, state and local government web resources and services.